Time;durP1;ratioP1;P1;durP2;ratioP2;P2;SDS_P1;SDS_P2;PMS_P1;PMS_P2;Temp;Humidity;BMP_temperature;BMP_pressure;BME280_temperature;BME280_humidity;BME280_pressure;Samples;Min_cycle;Max_cycle;Signal;HPM_P1;HPM_P2
2022/07/05 00:01:05;;;;;;;1999.90;999.90;;;13.70;99.90;;;;;;5124948;27;20197;-79
2022/07/05 00:03:32;;;;;;;1999.90;999.90;;;13.70;99.90;;;;;;5101282;27;20050;-79
2022/07/05 00:05:58;;;;;;;1999.90;999.90;;;13.70;99.90;;;;;;5147180;27;20363;-81
2022/07/05 00:08:23;;;;;;;1999.90;999.90;;;13.70;99.90;;;;;;5143661;27;20050;-80
2022/07/05 00:10:49;;;;;;;1999.90;999.90;;;13.70;99.90;;;;;;5126168;27;20063;-79
2022/07/05 00:13:15;;;;;;;1999.90;999.90;;;13.60;99.90;;;;;;5143756;27;20050;-81
2022/07/05 00:15:41;;;;;;;1999.90;999.90;;;13.50;99.90;;;;;;5143797;27;20043;-80
2022/07/05 00:18:07;;;;;;;1999.90;999.90;;;13.50;98.10;;;;;;5141596;27;20046;-82
2022/07/05 00:20:33;;;;;;;1999.90;999.90;;;13.50;32.50;;;;;;5143983;27;20039;-79
2022/07/05 00:22:58;;;;;;;1999.90;999.90;;;13.50;10.20;;;;;;5152508;27;20061;-79
2022/07/05 00:25:24;;;;;;;1999.90;999.90;;;13.40;99.90;;;;;;5152638;27;20047;-80
2022/07/05 00:27:50;;;;;;;1999.90;999.90;;;13.50;99.90;;;;;;5111978;27;20134;-83
2022/07/05 00:30:16;;;;;;;1999.90;999.90;;;14.70;99.90;;;;;;5141049;27;20084;-79
2022/07/05 00:32:41;;;;;;;1999.90;999.90;;;13.40;99.90;;;;;;5107654;27;20130;-79
2022/07/05 00:35:08;;;;;;;1999.90;999.90;;;13.40;99.90;;;;;;5148099;27;20039;-79
2022/07/05 00:37:34;;;;;;;1999.90;999.90;;;13.30;49.90;;;;;;5144073;27;20050;-79
2022/07/05 00:40:01;;;;;;;1999.90;999.90;;;13.30;1.00;;;;;;5134068;27;20075;-79
2022/07/05 00:42:26;;;;;;;1999.90;999.90;;;14.10;1.00;;;;;;5126518;27;20063;-79
2022/07/05 00:44:52;;;;;;;1999.90;999.90;;;13.30;1.00;;;;;;5142397;27;20039;-80
2022/07/05 00:47:18;;;;;;;1999.90;999.90;;;13.20;1.00;;;;;;5144029;27;20372;-78
2022/07/05 00:49:44;;;;;;;1999.90;999.90;;;13.20;1.00;;;;;;5144244;27;20047;-79
2022/07/05 00:52:11;;;;;;;1999.90;999.90;;;13.40;1.00;;;;;;5147659;27;20054;-79
2022/07/05 00:54:38;;;;;;;1999.90;999.90;;;13.20;1.00;;;;;;5151628;27;20046;-79
2022/07/05 00:57:04;;;;;;;1999.90;999.90;;;13.20;1.00;;;;;;5145425;27;20122;-78
2022/07/05 00:59:31;;;;;;;1999.90;999.90;;;13.10;1.00;;;;;;5141196;27;20038;-79
2022/07/05 01:01:57;;;;;;;1999.90;999.90;;;13.10;1.00;;;;;;5139532;27;20050;-80
2022/07/05 01:04:23;;;;;;;1999.90;999.90;;;13.10;1.00;;;;;;5142090;27;20044;-78
2022/07/05 01:06:51;;;;;;;1999.90;999.90;;;13.10;1.00;;;;;;5142300;27;20457;-81
2022/07/05 01:09:18;;;;;;;1999.90;999.90;;;13.00;1.00;;;;;;5125195;27;20054;-79
2022/07/05 01:11:45;;;;;;;1999.90;999.90;;;13.00;1.00;;;;;;5123048;27;20078;-80
2022/07/05 01:14:17;;;;;;;1999.90;999.90;;;13.00;1.00;;;;;;5141792;27;20054;-81
2022/07/05 01:16:43;;;;;;;1999.90;999.90;;;13.00;1.00;;;;;;5142734;27;20038;-81
2022/07/05 01:19:11;;;;;;;1999.90;999.90;;;13.00;1.00;;;;;;5138977;27;20038;-79
2022/07/05 01:21:40;;;;;;;1999.90;999.90;;;12.90;1.00;;;;;;5089720;27;20047;-80
2022/07/05 01:24:10;;;;;;;1999.90;999.90;;;12.90;1.00;;;;;;5141684;27;20043;-79
2022/07/05 01:26:37;;;;;;;1999.90;999.90;;;12.90;1.00;;;;;;5130221;27;20051;-79
2022/07/05 01:29:03;;;;;;;1999.90;999.90;;;12.90;1.00;;;;;;5138034;27;20043;-82
2022/07/05 01:31:29;;;;;;;1999.90;999.90;;;12.90;1.00;;;;;;5121295;27;20107;-79
2022/07/05 01:33:55;;;;;;;1999.90;999.90;;;12.90;1.00;;;;;;5140881;27;20038;-79
2022/07/05 01:36:22;;;;;;;1999.90;999.90;;;12.80;1.00;;;;;;5122741;27;20043;-79
2022/07/05 01:38:48;;;;;;;1999.90;999.90;;;12.80;1.00;;;;;;5135311;27;20494;-79
2022/07/05 01:41:14;;;;;;;1999.90;999.90;;;12.80;1.00;;;;;;5140323;27;20125;-79
2022/07/05 01:43:40;;;;;;;1999.90;999.90;;;12.80;1.00;;;;;;5140761;27;20130;-80
2022/07/05 01:46:08;;;;;;;1999.90;999.90;;;12.80;99.90;;;;;;5142519;27;20185;-78
2022/07/05 01:48:36;;;;;;;1999.90;999.90;;;13.00;99.90;;;;;;5148451;27;20046;-79
2022/07/05 01:51:13;;;;;;;1999.90;999.90;;;13.00;99.90;;;;;;5120785;27;20038;-82
2022/07/05 01:53:40;;;;;;;1999.90;999.90;;;13.00;1.00;;;;;;5149086;27;20261;-78
2022/07/05 01:56:06;;;;;;;1999.90;999.90;;;13.10;54.70;;;;;;5150378;27;20078;-78
2022/07/05 01:58:33;;;;;;;1999.90;880.30;;;13.10;38.60;;;;;;5149546;27;20070;-79
2022/07/05 02:00:59;;;;;;;1999.90;999.90;;;13.00;60.10;;;;;;5145577;27;20081;-78
2022/07/05 02:03:26;;;;;;;1999.90;999.90;;;13.00;1.00;;;;;;5111128;27;20122;-79
2022/07/05 02:05:52;;;;;;;1999.90;999.90;;;13.00;1.00;;;;;;5140123;27;20054;-79
2022/07/05 02:08:19;;;;;;;1999.90;990.22;;;12.90;99.90;;;;;;5138945;27;20095;-78
2022/07/05 02:10:45;;;;;;;1999.90;994.10;;;13.00;1.00;;;;;;5148285;27;20051;-75
2022/07/05 02:13:11;;;;;;;1999.90;999.90;;;13.00;14.00;;;;;;5150802;27;20366;-76
2022/07/05 02:15:39;;;;;;;1999.90;999.90;;;13.00;15.60;;;;;;5115643;27;20046;-76
2022/07/05 02:18:06;;;;;;;1999.90;999.90;;;13.00;99.90;;;;;;5150692;27;20084;-78
2022/07/05 02:20:33;;;;;;;1999.90;999.90;;;13.00;99.90;;;;;;5150487;27;20042;-75
2022/07/05 02:22:58;;;;;;;1999.90;999.90;;;13.00;99.90;;;;;;5152082;27;20443;-78
2022/07/05 02:25:25;;;;;;;1999.90;999.90;;;13.40;99.90;;;;;;5155854;27;20050;-75
2022/07/05 02:27:52;;;;;;;1999.90;999.90;;;12.90;44.20;;;;;;5157372;27;20431;-76
2022/07/05 02:30:18;;;;;;;1999.90;999.90;;;12.80;1.00;;;;;;5156637;27;20034;-76
2022/07/05 02:32:44;;;;;;;1999.90;999.90;;;12.70;1.00;;;;;;5159390;27;20053;-78
2022/07/05 02:35:11;;;;;;;1999.90;999.90;;;12.70;99.90;;;;;;5161010;27;20119;-75
2022/07/05 02:37:39;;;;;;;1999.90;999.90;;;12.80;8.70;;;;;;5159754;27;20371;-83
2022/07/05 02:40:07;;;;;;;1999.90;999.90;;;12.90;99.90;;;;;;5156328;27;20308;-75
2022/07/05 02:42:33;;;;;;;1999.90;999.90;;;12.90;99.90;;;;;;5137164;27;20185;-76
2022/07/05 02:44:59;;;;;;;1999.90;999.90;;;12.90;99.90;;;;;;5154360;27;20070;-78
2022/07/05 02:47:24;;;;;;;1999.90;999.33;;;12.80;99.90;;;;;;5155113;27;20122;-75
2022/07/05 02:49:51;;;;;;;1999.90;999.90;;;13.50;99.90;;;;;;5137535;27;20118;-78
2022/07/05 02:52:17;;;;;;;1999.90;999.90;;;12.70;99.90;;;;;;5156077;27;20121;-76
2022/07/05 02:54:43;;;;;;;1999.90;999.90;;;12.80;54.70;;;;;;5154938;27;20077;-76
2022/07/05 02:57:08;;;;;;;1999.90;999.90;;;12.70;1.00;;;;;;5156494;27;20042;-75
2022/07/05 02:59:34;;;;;;;1999.90;999.90;;;12.70;99.90;;;;;;5155182;27;20050;-82
2022/07/05 03:02:00;;;;;;;1999.90;999.90;;;12.70;99.90;;;;;;5153697;27;20053;-76
2022/07/05 03:04:25;;;;;;;1999.90;999.90;;;12.70;99.90;;;;;;5155901;27;20062;-75
2022/07/05 03:06:51;;;;;;;1999.90;999.90;;;12.60;56.50;;;;;;5155362;27;20078;-81
2022/07/05 03:09:17;;;;;;;1999.90;999.90;;;12.80;99.90;;;;;;5155333;27;20519;-75
2022/07/05 03:11:42;;;;;;;1999.90;999.90;;;12.70;99.90;;;;;;5155288;27;20605;-75
2022/07/05 03:14:08;;;;;;;1999.90;999.90;;;12.60;92.30;;;;;;5155278;27;20043;-82
2022/07/05 03:16:34;;;;;;;1999.90;999.90;;;12.60;1.00;;;;;;5153852;27;20082;-73
2022/07/05 03:18:59;;;;;;;1999.90;999.90;;;12.60;1.00;;;;;;5154025;27;20122;-75
2022/07/05 03:21:25;;;;;;;1999.90;999.90;;;12.50;1.00;;;;;;5134567;27;20039;-82
2022/07/05 03:23:51;;;;;;;1999.90;999.90;;;12.50;99.90;;;;;;5153894;27;20038;-76
2022/07/05 03:26:16;;;;;;;1999.90;999.90;;;12.40;99.90;;;;;;5153866;27;20066;-75
2022/07/05 03:28:42;;;;;;;1999.90;999.90;;;12.40;99.90;;;;;;5153616;27;20432;-79
2022/07/05 03:31:08;;;;;;;1999.90;999.90;;;12.40;99.90;;;;;;5153133;27;20038;-77
2022/07/05 03:33:34;;;;;;;1999.90;999.90;;;12.40;99.90;;;;;;5118239;27;20046;-82
2022/07/05 03:35:59;;;;;;;1999.90;999.90;;;12.40;99.90;;;;;;5119504;27;20086;-76
2022/07/05 03:38:25;;;;;;;1999.90;987.20;;;12.50;99.90;;;;;;5135375;27;20046;-77
2022/07/05 03:40:50;;;;;;;1999.90;999.90;;;12.60;1.00;;;;;;5153283;27;20035;-76
2022/07/05 03:43:16;;;;;;;1999.90;999.90;;;12.50;99.90;;;;;;5134385;27;20222;-76
2022/07/05 03:45:42;;;;;;;1999.90;999.90;;;12.50;99.90;;;;;;5134161;27;20038;-85
2022/07/05 03:48:08;;;;;;;1999.90;999.90;;;12.50;99.90;;;;;;5134401;27;20043;-76
2022/07/05 03:50:33;;;;;;;1999.90;999.90;;;12.80;99.90;;;;;;5153094;27;20050;-76
2022/07/05 03:52:59;;;;;;;1999.90;999.90;;;12.40;99.90;;;;;;5152457;27;20423;-85
2022/07/05 03:55:24;;;;;;;1999.90;999.90;;;12.40;99.90;;;;;;5152456;27;20050;-76
2022/07/05 03:57:50;;;;;;;1999.90;990.88;;;12.80;99.90;;;;;;5152713;27;20085;-77
2022/07/05 04:00:16;;;;;;;1999.90;999.90;;;12.40;99.90;;;;;;5117729;27;20047;-75
2022/07/05 04:02:42;;;;;;;1999.90;999.90;;;12.50;99.90;;;;;;5134175;27;20042;-75
2022/07/05 04:05:08;;;;;;;1999.90;985.25;;;12.50;99.90;;;;;;5152865;27;20049;-79
2022/07/05 04:07:34;;;;;;;1999.90;999.90;;;12.50;99.90;;;;;;5153178;27;20039;-75
2022/07/05 04:10:00;;;;;;;1999.90;999.90;;;12.70;99.90;;;;;;5153756;27;20093;-78
2022/07/05 04:12:26;;;;;;;1999.90;999.90;;;12.70;99.90;;;;;;5135796;27;20042;-76
2022/07/05 04:14:52;;;;;;;1999.90;999.90;;;12.80;99.90;;;;;;5153617;27;20122;-77
2022/07/05 04:17:17;;;;;;;1999.90;999.90;;;12.70;99.90;;;;;;5154373;27;20467;-76
2022/07/05 04:19:43;;;;;;;1999.90;999.90;;;12.90;1.00;;;;;;5100854;27;20104;-75
2022/07/05 04:22:09;;;;;;;1999.90;915.95;;;13.10;99.90;;;;;;5154457;27;20048;-76
2022/07/05 04:25:16;;;;;;;1999.90;999.90;;;13.10;99.90;;;;;;5153830;27;20043;-76
2022/07/05 04:27:20;;;;;;;1999.90;999.90;;;13.20;99.90;;;;;;5153632;27;20069;-76
2022/07/05 04:29:46;;;;;;;1999.90;999.90;;;13.20;99.90;;;;;;5152905;27;20038;-78
2022/07/05 04:32:12;;;;;;;1984.65;892.65;;;13.20;99.90;;;;;;5153746;27;20597;-76
2022/07/05 04:34:37;;;;;;;1999.90;986.08;;;13.20;99.90;;;;;;5154062;27;20525;-76
2022/07/05 04:37:03;;;;;;;1999.90;845.15;;;13.20;99.90;;;;;;5154172;27;20051;-76
2022/07/05 04:39:29;;;;;;;1999.90;965.25;;;13.40;99.90;;;;;;5151697;27;20046;-76
2022/07/05 04:41:54;;;;;;;1999.90;999.90;;;13.50;99.90;;;;;;5153489;27;20038;-77
2022/07/05 04:44:20;;;;;;;1999.90;999.90;;;13.40;99.90;;;;;;5153913;27;20465;-76
2022/07/05 04:46:46;;;;;;;1999.90;999.90;;;13.40;99.90;;;;;;5152994;27;20047;-76
2022/07/05 04:49:11;;;;;;;1999.90;928.80;;;13.60;1.00;;;;;;5153727;27;20046;-76
2022/07/05 04:51:37;;;;;;;1999.90;999.90;;;13.60;1.00;;;;;;5153416;27;20429;-76
2022/07/05 04:54:03;;;;;;;1999.90;999.90;;;13.60;99.90;;;;;;5152177;27;20038;-76
2022/07/05 04:56:28;;;;;;;1999.90;999.90;;;13.60;99.90;;;;;;5152257;27;20050;-75
2022/07/05 04:58:54;;;;;;;1999.90;999.90;;;13.60;99.90;;;;;;5134925;27;20366;-76
2022/07/05 05:01:20;;;;;;;1999.90;999.90;;;13.60;99.90;;;;;;5133380;27;20361;-76
2022/07/05 05:03:45;;;;;;;1999.90;999.90;;;13.60;99.90;;;;;;5153309;27;20049;-76
2022/07/05 05:06:13;;;;;;;1999.90;999.90;;;13.70;52.30;;;;;;5152943;27;20046;-75
2022/07/05 05:08:39;;;;;;;1999.90;999.90;;;13.60;1.00;;;;;;5134724;27;20446;-74
2022/07/05 05:11:05;;;;;;;1999.90;999.90;;;13.60;1.00;;;;;;5153283;27;20399;-75
2022/07/05 05:13:31;;;;;;;1999.90;999.90;;;13.70;1.00;;;;;;5152991;27;20059;-75
2022/07/05 05:15:56;;;;;;;1999.90;965.08;;;13.80;1.00;;;;;;5152459;27;20467;-75
2022/07/05 05:18:26;;;;;;;1999.90;999.90;;;13.90;1.00;;;;;;5135164;27;20459;-75
2022/07/05 05:20:54;;;;;;;1999.90;999.90;;;13.90;1.00;;;;;;5152643;27;20103;-76
2022/07/05 05:23:20;;;;;;;;;;;14.00;99.90;;;;;;5135181;27;20046;-76
2022/07/05 05:25:46;;;;;;;1999.90;999.90;;;14.00;99.90;;;;;;5153030;27;20326;-75
2022/07/05 05:28:11;;;;;;;1999.90;999.90;;;14.00;99.90;;;;;;5153143;27;20042;-75
2022/07/05 05:30:37;;;;;;;1999.90;967.30;;;14.20;99.90;;;;;;5153020;27;20046;-75
2022/07/05 05:33:03;;;;;;;1999.90;999.90;;;14.30;99.90;;;;;;5116361;27;20061;-84
2022/07/05 05:35:29;;;;;;;1999.90;965.85;;;14.50;99.90;;;;;;5152177;27;20046;-76
2022/07/05 05:37:55;;;;;;;1999.90;913.55;;;14.50;35.30;;;;;;5134549;27;20500;-77
2022/07/05 05:40:25;;;;;;;1999.90;999.90;;;14.60;2.60;;;;;;5151548;27;20062;-76
2022/07/05 05:42:52;;;;;;;1999.90;999.90;;;14.60;1.00;;;;;;5134549;27;20038;-76
2022/07/05 05:45:18;;;;;;;1999.90;999.90;;;14.70;1.00;;;;;;5150644;27;20051;-80
2022/07/05 05:47:45;;;;;;;1999.90;984.00;;;14.70;1.00;;;;;;5152315;27;20388;-75
2022/07/05 05:50:11;;;;;;;1999.90;922.33;;;14.70;1.00;;;;;;5152531;27;20069;-76
2022/07/05 05:52:37;;;;;;;1999.90;999.90;;;14.90;1.00;;;;;;5153182;27;20039;-76
2022/07/05 05:55:05;;;;;;;1999.90;999.90;;;14.90;1.00;;;;;;5133990;27;20200;-76
2022/07/05 05:57:31;;;;;;;1203.47;947.08;;;15.10;99.90;;;;;;5151702;27;20073;-76
2022/07/05 05:59:57;;;;;;;1999.90;999.90;;;15.20;99.90;;;;;;5152517;27;20043;-75
2022/07/05 06:02:23;;;;;;;1973.78;999.90;;;15.40;99.90;;;;;;5152870;27;20095;-76
2022/07/05 06:04:48;;;;;;;1685.05;999.90;;;15.60;41.40;;;;;;5152937;27;20043;-76
2022/07/05 06:07:14;;;;;;;1446.82;999.90;;;15.80;1.00;;;;;;5152314;27;20144;-76
2022/07/05 06:09:39;;;;;;;1639.03;999.90;;;16.00;99.90;;;;;;5152733;27;20097;-75
2022/07/05 06:12:05;;;;;;;1999.90;999.90;;;16.00;99.90;;;;;;5133320;27;20092;-76
2022/07/05 06:14:31;;;;;;;1394.63;951.45;;;16.00;99.90;;;;;;5152933;27;20043;-76
2022/07/05 06:16:57;;;;;;;1999.90;999.90;;;15.90;99.90;;;;;;5133950;27;20049;-83
2022/07/05 06:19:22;;;;;;;1425.35;962.22;;;15.90;1.00;;;;;;5152533;27;20125;-75
2022/07/05 06:21:48;;;;;;;1683.65;992.17;;;16.00;99.90;;;;;;5134489;27;20054;-76
2022/07/05 06:24:14;;;;;;;1505.28;988.45;;;16.00;99.90;;;;;;5152149;27;20054;-75
2022/07/05 06:26:39;;;;;;;1535.50;999.90;;;16.10;99.90;;;;;;5152851;27;20066;-77
2022/07/05 06:29:05;;;;;;;1581.63;994.35;;;16.10;99.90;;;;;;5117033;27;20053;-76
2022/07/05 06:31:30;;;;;;;1918.75;999.90;;;16.20;99.90;;;;;;5151851;27;20137;-76
2022/07/05 06:33:56;;;;;;;1257.78;961.58;;;16.30;99.90;;;;;;5152775;27;20043;-76
2022/07/05 06:36:25;;;;;;;1453.95;968.58;;;16.40;99.90;;;;;;5133778;27;20039;-76
2022/07/05 06:38:50;;;;;;;1999.90;999.90;;;16.40;99.90;;;;;;5150368;27;20057;-77
2022/07/05 06:41:16;;;;;;;1501.95;999.90;;;16.60;99.90;;;;;;5151748;27;20141;-79
2022/07/05 06:43:42;;;;;;;1472.82;998.05;;;16.70;99.90;;;;;;5152428;27;20047;-76
2022/07/05 06:46:07;;;;;;;1811.13;999.90;;;16.80;99.90;;;;;;5132807;27;20059;-75
2022/07/05 06:48:33;;;;;;;1448.97;999.05;;;16.90;99.90;;;;;;5152578;27;20050;-76
2022/07/05 06:50:59;;;;;;;950.05;851.47;;;17.00;99.90;;;;;;5134103;27;20042;-76
2022/07/05 06:53:24;;;;;;;953.65;858.65;;;17.10;99.90;;;;;;5133468;27;20162;-76
2022/07/05 06:55:50;;;;;;;1025.30;924.58;;;17.20;99.90;;;;;;5133902;27;20130;-77
2022/07/05 06:58:16;;;;;;;1026.60;928.20;;;17.30;99.90;;;;;;5151742;27;20432;-76
2022/07/05 07:00:43;;;;;;;1007.33;916.97;;;17.30;99.90;;;;;;5151807;27;20141;-81
2022/07/05 07:03:08;;;;;;;1169.85;973.03;;;17.40;99.90;;;;;;5151358;27;20133;-76
2022/07/05 07:05:34;;;;;;;1382.15;938.92;;;17.50;99.90;;;;;;5152026;27;20130;-77
2022/07/05 07:10:44;;;;;;;966.78;859.53;;;17.70;99.90;;;;;;5152036;27;20119;-76
2022/07/05 07:13:10;;;;;;;883.78;817.47;;;18.40;99.70;;;;;;5152034;27;20399;-76
2022/07/05 07:15:37;;;;;;;811.53;752.05;;;19.00;59.10;;;;;;5152576;27;20043;-76
2022/07/05 07:18:04;;;;;;;890.15;819.55;;;20.20;20.80;;;;;;5153566;27;20078;-86
2022/07/05 07:20:29;;;;;;;711.78;656.95;;;21.00;1.00;;;;;;5155883;27;20038;-76
2022/07/05 07:22:55;;;;;;;759.72;702.33;;;22.30;1.00;;;;;;5156164;27;20046;-77
2022/07/05 07:25:23;;;;;;;687.85;635.33;;;23.80;1.00;;;;;;5155510;27;20043;-76
2022/07/05 07:27:54;;;;;;;706.42;649.55;;;24.20;99.90;;;;;;5156150;27;20062;-77
2022/07/05 07:30:22;;;;;;;599.95;553.72;;;24.60;99.90;;;;;;5155041;27;20391;-76
2022/07/05 07:32:48;;;;;;;533.45;491.67;;;24.10;99.90;;;;;;5136879;27;20034;-76
2022/07/05 07:35:14;;;;;;;674.63;624.75;;;23.50;99.90;;;;;;5136861;27;20046;-76
2022/07/05 07:37:40;;;;;;;549.70;507.73;;;22.00;99.90;;;;;;5155832;27;20054;-77
2022/07/05 07:40:06;;;;;;;523.17;487.30;;;21.60;99.90;;;;;;5153570;27;20047;-85
2022/07/05 07:42:32;;;;;;;565.88;525.22;;;20.60;99.90;;;;;;5155719;27;20119;-77
2022/07/05 07:44:58;;;;;;;524.53;486.83;;;21.20;99.90;;;;;;5155553;27;20344;-77
2022/07/05 07:47:24;;;;;;;758.90;690.30;;;21.90;99.90;;;;;;5154549;27;20414;-77
2022/07/05 07:49:50;;;;;;;600.45;558.70;;;22.80;99.90;;;;;;5154974;27;20042;-77
2022/07/05 07:52:16;;;;;;;485.80;454.58;;;23.30;99.90;;;;;;5136443;27;20070;-82
2022/07/05 07:54:42;;;;;;;705.33;652.05;;;23.30;99.90;;;;;;5155592;27;20050;-78
2022/07/05 07:57:07;;;;;;;599.40;558.88;;;22.90;99.90;;;;;;5155255;27;20034;-86
2022/07/05 07:59:34;;;;;;;744.92;693.53;;;22.20;99.90;;;;;;5154921;27;20090;-76
2022/07/05 08:02:00;;;;;;;758.60;701.45;;;21.60;99.90;;;;;;5154820;27;20047;-76
2022/07/05 08:04:25;;;;;;;645.05;597.30;;;21.40;99.90;;;;;;5154614;27;20054;-76
2022/07/05 08:06:51;;;;;;;853.53;787.75;;;21.10;99.90;;;;;;5155452;27;20099;-76
2022/07/05 08:09:17;;;;;;;725.90;673.63;;;21.10;99.90;;;;;;5154254;27;20049;-76
2022/07/05 08:11:44;;;;;;;814.13;755.72;;;21.30;99.90;;;;;;5154561;27;20055;-77
2022/07/05 08:14:09;;;;;;;753.17;698.37;;;21.40;99.90;;;;;;5155019;27;20130;-84
2022/07/05 08:16:35;;;;;;;941.63;855.92;;;21.90;99.90;;;;;;5154974;27;20740;-78
2022/07/05 08:21:47;;;;;;;731.15;680.85;;;24.60;99.90;;;;;;5154762;27;20046;-77
2022/07/05 08:24:14;;;;;;;718.72;669.30;;;26.30;99.90;;;;;;5154758;27;20054;-76
2022/07/05 08:26:41;;;;;;;527.38;490.27;;;27.50;99.90;;;;;;5155464;27;20038;-76
2022/07/05 08:29:09;;;;;;;574.85;534.90;;;28.20;99.90;;;;;;5159052;27;20046;-78
2022/07/05 08:31:40;;;;;;;394.88;370.75;;;28.50;99.90;;;;;;5136746;27;20045;-77
2022/07/05 08:34:05;;;;;;;574.15;535.42;;;29.10;99.90;;;;;;5136863;27;20039;-77
2022/07/05 08:36:31;;;;;;;477.08;446.42;;;29.30;99.90;;;;;;5154512;27;20103;-78
2022/07/05 08:39:00;;;;;;;532.67;496.67;;;28.50;99.90;;;;;;5134836;27;20481;-80
2022/07/05 08:41:26;;;;;;;584.53;544.70;;;29.10;99.90;;;;;;5136388;27;20086;-77
2022/07/05 08:43:52;;;;;;;507.50;474.58;;;28.40;99.90;;;;;;5136762;27;20082;-77
2022/07/05 08:46:18;;;;;;;465.70;434.10;;;28.80;99.90;;;;;;5153991;27;20039;-77
2022/07/05 08:48:51;;;;;;;585.72;546.88;;;28.60;99.90;;;;;;5136035;27;20071;-77
2022/07/05 08:51:22;;;;;;;730.85;675.88;;;29.20;99.90;;;;;;5154106;27;20498;-76
2022/07/05 08:53:50;;;;;;;557.15;519.38;;;27.90;99.90;;;;;;5154234;27;20042;-87
2022/07/05 08:56:17;;;;;;;662.28;618.55;;;27.60;99.90;;;;;;5153845;27;20042;-76
2022/07/05 08:58:43;;;;;;;593.13;552.90;;;27.60;99.90;;;;;;5154032;27;20062;-82
2022/07/05 09:01:10;;;;;;;569.15;530.72;;;27.40;99.90;;;;;;5134931;27;20050;-76
2022/07/05 09:03:42;;;;;;;;;;;26.90;99.90;;;;;;5154373;27;20466;-76
2022/07/05 09:06:09;;;;;;;565.55;528.05;;;27.00;99.90;;;;;;5154278;27;19945;-76
2022/07/05 09:08:40;;;;;;;623.72;582.15;;;27.90;99.90;;;;;;5135596;27;20054;-85
2022/07/05 09:11:14;;;;;;;665.42;621.50;;;28.80;99.90;;;;;;5132492;27;20097;-76
2022/07/05 09:13:44;;;;;;;559.88;521.50;;;28.50;99.90;;;;;;5136466;27;20132;-75
2022/07/05 09:16:11;;;;;;;647.85;601.38;;;27.80;99.90;;;;;;5137415;27;20054;-76
2022/07/05 09:18:41;;;;;;;654.17;608.80;;;26.80;99.90;;;;;;5135711;27;20051;-76
2022/07/05 09:21:15;;;;;;;574.50;534.45;;;25.80;99.90;;;;;;5133636;27;20047;-76
2022/07/05 09:23:41;;;;;;;690.42;643.28;;;24.60;99.90;;;;;;5133425;27;20066;-75
2022/07/05 09:26:07;;;;;;;713.53;663.58;;;23.90;99.90;;;;;;5132926;27;20097;-82
2022/07/05 09:28:33;;;;;;;680.78;634.40;;;23.60;99.90;;;;;;5130804;27;20105;-75
2022/07/05 09:30:58;;;;;;;698.35;650.17;;;23.80;99.90;;;;;;5132747;27;20138;-75
2022/07/05 09:33:24;;;;;;;703.95;655.80;;;24.40;99.90;;;;;;5132753;27;20161;-76
2022/07/05 09:35:57;;;;;;;695.35;647.15;;;24.30;99.90;;;;;;5132796;27;20126;-77
2022/07/05 09:38:26;;;;;;;903.25;833.65;;;23.90;99.90;;;;;;5131748;27;20487;-80
2022/07/05 09:40:57;;;;;;;843.40;779.88;;;23.50;99.90;;;;;;5131754;27;20043;-76
2022/07/05 09:43:26;;;;;;;791.40;734.85;;;23.10;99.90;;;;;;5131019;27;20078;-76
2022/07/05 09:46:04;;;;;;;872.38;804.65;;;22.80;99.90;;;;;;5131205;27;20048;-76
2022/07/05 09:48:32;;;;;;;820.53;758.60;;;23.40;99.90;;;;;;5132098;27;20047;-76
2022/07/05 09:51:12;;;;;;;647.25;600.47;;;24.60;99.90;;;;;;5132346;27;20591;-75
2022/07/05 09:53:51;;;;;;;912.38;840.72;;;24.60;99.90;;;;;;5132198;27;20111;-77
2022/07/05 09:56:17;;;;;;;777.67;722.50;;;23.60;99.90;;;;;;5131840;27;20134;-77
2022/07/05 09:58:44;;;;;;;799.78;741.92;;;23.40;99.90;;;;;;5131876;27;20073;-77
2022/07/05 10:01:30;;;;;;;882.70;815.50;;;23.10;99.90;;;;;;5132416;27;20058;-79
2022/07/05 10:03:57;;;;;;;926.92;854.15;;;22.80;99.90;;;;;;5131433;27;20054;-77
2022/07/05 10:06:24;;;;;;;824.50;764.47;;;22.60;99.90;;;;;;5131083;27;20051;-76
2022/07/05 10:08:52;;;;;;;870.35;802.55;;;22.70;99.90;;;;;;5132203;27;20122;-76
2022/07/05 10:11:20;;;;;;;807.40;746.97;;;22.50;99.90;;;;;;5142036;27;20059;-76
2022/07/05 10:13:50;;;;;;;846.88;783.30;;;22.80;99.90;;;;;;5153347;27;20435;-78
2022/07/05 10:16:17;;;;;;;751.20;699.13;;;22.50;99.90;;;;;;5134430;27;20047;-76
2022/07/05 10:18:51;;;;;;;723.20;673.00;;;22.50;99.90;;;;;;5133801;27;20100;-77
2022/07/05 10:21:17;;;;;;;808.85;749.67;;;22.40;99.90;;;;;;5153131;27;20165;-76
2022/07/05 10:24:00;;;;;;;732.08;681.38;;;22.80;99.90;;;;;;5151296;27;20038;-77
2022/07/05 10:26:28;;;;;;;742.53;689.92;;;23.10;99.90;;;;;;5134417;27;20047;-75
2022/07/05 10:28:54;;;;;;;916.22;841.78;;;23.70;99.90;;;;;;5152845;27;20047;-76
2022/07/05 10:31:20;;;;;;;813.80;753.60;;;24.10;99.90;;;;;;5152567;27;20050;-76
2022/07/05 10:33:46;;;;;;;906.65;834.60;;;24.00;99.90;;;;;;5152541;27;20455;-76
2022/07/05 10:36:13;;;;;;;733.47;683.50;;;23.80;99.90;;;;;;5152740;27;20046;-75
2022/07/05 10:38:44;;;;;;;705.75;657.72;;;23.70;99.90;;;;;;5150571;27;20130;-84
2022/07/05 10:41:14;;;;;;;917.13;843.47;;;24.00;99.90;;;;;;5152729;27;20483;-77
2022/07/05 10:43:40;;;;;;;1999.90;999.90;;;25.30;99.90;;;;;;5152047;27;20196;-77
2022/07/05 10:46:07;;;;;;;811.13;749.10;;;26.70;99.90;;;;;;5151793;27;20082;-77
2022/07/05 10:48:34;;;;;;;1215.28;902.72;;;28.10;99.90;;;;;;5152333;27;20043;-76
2022/07/05 10:51:16;;;;;;;736.00;682.58;;;29.10;99.90;;;;;;5152677;27;20389;-78
2022/07/05 10:53:42;;;;;;;756.38;695.58;;;28.90;99.90;;;;;;5136543;27;20125;-76
2022/07/05 10:56:07;;;;;;;714.92;660.47;;;28.00;99.90;;;;;;5156075;27;20085;-75
2022/07/05 10:58:37;;;;;;;856.90;788.40;;;27.10;99.90;;;;;;5155999;27;20047;-75
2022/07/05 11:01:12;;;;;;;894.72;822.25;;;26.50;99.90;;;;;;5155260;27;20046;-74
2022/07/05 11:03:48;;;;;;;758.83;699.58;;;26.90;99.90;;;;;;5155611;27;20566;-74
2022/07/05 11:06:21;;;;;;;448.00;419.65;;;27.90;99.90;;;;;;5156421;27;20043;-74
2022/07/05 11:08:59;;;;;;;439.15;410.65;;;28.40;99.90;;;;;;5137646;27;20130;-75
2022/07/05 11:11:31;;;;;;;523.92;491.10;;;29.60;99.90;;;;;;5155986;27;20400;-74
2022/07/05 11:13:58;;;;;;;836.35;770.08;;;29.50;99.90;;;;;;5156368;27;20470;-73
2022/07/05 11:16:29;;;;;;;559.47;521.00;;;28.40;99.90;;;;;;5137404;27;20134;-74
2022/07/05 11:19:12;;;;;;;630.63;580.50;;;27.60;99.90;;;;;;5156466;27;20053;-74
2022/07/05 11:22:00;;;;;;;489.63;455.13;;;27.00;99.90;;;;;;5156204;27;20058;-75
2022/07/05 11:24:29;;;;;;;578.00;537.35;;;28.40;99.90;;;;;;5156083;27;20047;-74
2022/07/05 11:26:58;;;;;;;591.50;549.88;;;29.00;99.90;;;;;;5137691;27;20072;-74
2022/07/05 11:29:42;;;;;;;416.42;388.52;;;28.60;99.90;;;;;;5156229;27;20085;-74
2022/07/05 11:32:19;;;;;;;877.35;808.55;;;28.30;99.90;;;;;;5155684;27;20053;-74
2022/07/05 11:34:47;;;;;;;486.65;454.98;;;28.40;99.90;;;;;;5155332;27;20111;-75
2022/07/05 11:37:33;;;;;;;484.80;450.65;;;27.60;99.90;;;;;;5137292;27;20476;-74
2022/07/05 11:40:09;;;;;;;742.95;687.22;;;26.80;99.90;;;;;;5153669;27;20276;-74
2022/07/05 11:42:41;;;;;;;741.67;682.78;;;26.60;99.90;;;;;;5154975;27;20050;-75
2022/07/05 11:45:08;;;;;;;504.95;468.77;;;26.20;99.90;;;;;;5155937;27;20462;-74
2022/07/05 11:47:35;;;;;;;554.05;515.03;;;26.60;99.90;;;;;;5155104;27;20046;-74
2022/07/05 11:50:01;;;;;;;607.15;563.90;;;27.40;99.90;;;;;;5155983;27;20038;-75
2022/07/05 11:52:32;;;;;;;560.13;519.80;;;28.30;99.90;;;;;;5137027;27;20099;-76
2022/07/05 11:55:00;;;;;;;527.30;491.10;;;28.70;99.90;;;;;;5155698;27;20487;-74
2022/07/05 11:57:25;;;;;;;578.03;537.00;;;28.20;99.90;;;;;;5137129;27;20089;-74
2022/07/05 11:59:51;;;;;;;440.88;410.67;;;27.90;99.90;;;;;;5155322;27;20082;-75
2022/07/05 12:02:18;;;;;;;518.85;480.73;;;28.50;99.90;;;;;;5154983;27;20138;-75
2022/07/05 12:04:55;;;;;;;598.97;555.28;;;29.50;99.90;;;;;;5136293;27;20041;-74
2022/07/05 12:07:32;;;;;;;483.53;448.93;;;30.00;99.90;;;;;;5155487;27;20123;-74
2022/07/05 12:12:43;;;;;;;555.30;514.53;;;29.90;99.90;;;;;;5132277;27;20077;-76
2022/07/05 12:15:20;;;;;;;498.85;459.70;;;30.10;99.90;;;;;;5134140;27;20514;-78